Time;durP1;ratioP1;P1;durP2;ratioP2;P2;SDS_P1;SDS_P2;PMS_P1;PMS_P2;Temp;Humidity;BMP_temperature;BMP_pressure;BME280_temperature;BME280_humidity;BME280_pressure;Samples;Min_cycle;Max_cycle;Signal;HPM_P1;HPM_P2
2021/11/08 00:01:33;;;;;;;11.20;2.10;;;;;;;;;;5013338;28;20030;-72
2021/11/08 00:03:59;;;;;;;11.65;2.53;;;;;;;;;;4997246;28;20030;-71
2021/11/08 00:06:25;;;;;;;13.30;1.90;;;;;;;;;;5018334;28;20080;-71
2021/11/08 00:08:51;;;;;;;13.60;1.92;;;;;;;;;;5013462;28;20033;-71
2021/11/08 00:11:17;;;;;;;10.10;1.42;;;;;;;;;;5012220;28;20022;-71
2021/11/08 00:13:44;;;;;;;8.57;1.75;;;;;;;;;;5021612;28;20026;-72
2021/11/08 00:16:19;;;;;;;10.20;1.65;;;;;;;;;;5011715;28;20026;-72
2021/11/08 00:21:31;;;;;;;12.23;2.40;;;;;;;;;;5007532;28;20116;-71
2021/11/08 00:23:57;;;;;;;8.85;1.33;;;;;;;;;;5005056;28;20438;-71
2021/11/08 00:26:23;;;;;;;17.35;2.63;;;;;;;;;;5006285;28;20025;-71
2021/11/08 00:28:49;;;;;;;10.65;1.35;;;;;;;;;;5004200;28;20022;-71
2021/11/08 00:31:15;;;;;;;10.35;1.27;;;;;;;;;;5004132;28;20057;-71
2021/11/08 00:33:41;;;;;;;9.75;1.60;;;;;;;;;;4998379;28;20033;-71
2021/11/08 00:36:08;;;;;;;8.15;1.42;;;;;;;;;;5005362;28;20077;-71
2021/11/08 00:38:35;;;;;;;16.33;1.85;;;;;;;;;;5007590;28;20030;-71
2021/11/08 00:41:01;;;;;;;13.70;1.83;;;;;;;;;;5003013;28;20030;-71
2021/11/08 00:43:28;;;;;;;11.45;1.17;;;;;;;;;;5027647;28;20034;-71
2021/11/08 00:45:54;;;;;;;12.50;3.03;;;;;;;;;;5005102;28;20471;-71
2021/11/08 00:48:23;;;;;;;14.68;4.10;;;;;;;;;;4992226;28;20440;-71
2021/11/08 00:50:50;;;;;;;12.13;1.50;;;;;;;;;;5003796;28;20038;-71
2021/11/08 00:53:16;;;;;;;8.98;1.02;;;;;;;;;;5002978;28;20083;-71
2021/11/08 00:55:44;;;;;;;13.90;2.55;;;;;;;;;;5024821;28;20034;-72
2021/11/08 00:58:17;;;;;;;7.22;1.92;;;;;;;;;;5004543;28;20109;-71
2021/11/08 01:00:43;;;;;;;11.73;1.55;;;;;;;;;;5008555;28;20152;-71
2021/11/08 01:03:11;;;;;;;8.75;1.15;;;;;;;;;;4991975;28;20030;-71
2021/11/08 01:05:37;;;;;;;10.85;1.23;;;;;;;;;;5007286;28;20033;-72
2021/11/08 01:08:03;;;;;;;11.02;2.03;;;;;;;;;;5020069;28;20117;-71
2021/11/08 01:10:29;;;;;;;8.40;1.63;;;;;;;;;;5011837;28;20092;-71
2021/11/08 01:12:55;;;;;;;9.75;2.15;;;;;;;;;;5010162;28;20030;-71
2021/11/08 01:15:21;;;;;;;9.90;1.25;;;;;;;;;;5005043;28;20037;-71
2021/11/08 01:17:47;;;;;;;7.75;1.63;;;;;;;;;;5013052;28;20034;-71
2021/11/08 01:20:14;;;;;;;7.18;1.00;;;;;;;;;;4991216;28;20053;-72
2021/11/08 01:22:40;;;;;;;11.10;1.25;;;;;;;;;;5015815;28;20041;-72
2021/11/08 01:25:08;;;;;;;10.10;1.30;;;;;;;;;;5013520;28;20048;-72
2021/11/08 01:27:37;;;;;;;9.02;1.55;;;;;;;;;;4997237;28;20088;-72
2021/11/08 01:30:06;;;;;;;9.57;1.48;;;;;;;;;;5002567;28;20029;-72
2021/11/08 01:32:32;;;;;;;7.68;1.30;;;;;;;;;;5006378;28;20101;-72
2021/11/08 01:34:59;;;;;;;6.55;0.70;;;;;;;;;;5026209;28;20059;-72
2021/11/08 01:37:25;;;;;;;9.23;2.47;;;;;;;;;;5010918;28;20037;-72
2021/11/08 01:39:51;;;;;;;5.20;0.82;;;;;;;;;;4996974;28;20034;-72
2021/11/08 01:42:17;;;;;;;13.25;2.92;;;;;;;;;;5026122;28;20124;-72
2021/11/08 01:44:43;;;;;;;8.88;1.38;;;;;;;;;;5004254;28;20105;-72
2021/11/08 01:47:10;;;;;;;9.25;1.48;;;;;;;;;;5023069;28;20128;-71
2021/11/08 01:49:40;;;;;;;20.45;2.60;;;;;;;;;;5011215;28;20099;-71
2021/11/08 01:52:07;;;;;;;9.25;1.33;;;;;;;;;;5001061;28;20078;-72
2021/11/08 01:54:33;;;;;;;9.70;2.00;;;;;;;;;;4997867;28;20513;-72
2021/11/08 01:56:59;;;;;;;11.73;1.83;;;;;;;;;;5023662;28;20034;-72
2021/11/08 01:59:26;;;;;;;13.00;1.50;;;;;;;;;;5002430;28;20037;-72
2021/11/08 02:01:56;;;;;;;7.72;1.50;;;;;;;;;;5002336;28;20034;-72
2021/11/08 02:04:23;;;;;;;10.40;2.13;;;;;;;;;;4997298;28;20491;-72
2021/11/08 02:06:50;;;;;;;14.15;2.50;;;;;;;;;;5008630;28;20033;-72
2021/11/08 02:09:16;;;;;;;8.93;1.83;;;;;;;;;;5006163;28;20029;-71
2021/11/08 02:11:43;;;;;;;16.08;1.52;;;;;;;;;;5009512;28;20119;-72
2021/11/08 02:14:09;;;;;;;8.45;1.30;;;;;;;;;;5003556;28;20025;-72
2021/11/08 02:16:35;;;;;;;10.65;1.20;;;;;;;;;;5025561;28;20030;-72
2021/11/08 02:19:02;;;;;;;7.05;1.15;;;;;;;;;;5007054;28;20026;-72
2021/11/08 02:21:29;;;;;;;7.40;2.95;;;;;;;;;;5004488;28;20037;-72
2021/11/08 02:23:56;;;;;;;12.93;1.50;;;;;;;;;;5004502;28;20049;-72
2021/11/08 02:26:22;;;;;;;14.43;1.63;;;;;;;;;;4999328;28;20476;-73
2021/11/08 02:28:49;;;;;;;13.48;1.77;;;;;;;;;;5006788;28;20033;-72
2021/11/08 02:31:17;;;;;;;8.70;1.70;;;;;;;;;;5002426;28;20483;-72
2021/11/08 02:33:44;;;;;;;15.73;1.83;;;;;;;;;;5001952;28;20021;-72
2021/11/08 02:36:10;;;;;;;11.10;2.42;;;;;;;;;;5010438;28;20137;-72
2021/11/08 02:38:40;;;;;;;5.18;1.48;;;;;;;;;;5002467;28;20053;-72
2021/11/08 02:41:08;;;;;;;10.93;1.35;;;;;;;;;;4999076;28;20135;-71
2021/11/08 02:43:34;;;;;;;7.30;2.10;;;;;;;;;;4998853;28;20069;-72
2021/11/08 02:46:11;;;;;;;12.93;2.55;;;;;;;;;;5025303;28;20479;-73
2021/11/08 02:48:38;;;;;;;12.18;2.80;;;;;;;;;;5004593;28;20034;-71
2021/11/08 02:51:13;;;;;;;15.35;2.03;;;;;;;;;;5004327;28;20113;-71
2021/11/08 02:53:40;;;;;;;11.43;2.90;;;;;;;;;;4998119;28;20050;-71
2021/11/08 02:56:10;;;;;;;14.70;2.45;;;;;;;;;;5012546;28;20020;-72
2021/11/08 02:58:37;;;;;;;15.00;2.70;;;;;;;;;;5019310;28;20491;-71
2021/11/08 03:01:04;;;;;;;20.98;3.65;;;;;;;;;;4999094;28;20022;-71
2021/11/08 03:03:36;;;;;;;13.10;3.80;;;;;;;;;;5001397;28;20026;-71
2021/11/08 03:06:09;;;;;;;12.85;3.35;;;;;;;;;;5023426;28;20037;-71
2021/11/08 03:08:35;;;;;;;14.90;2.70;;;;;;;;;;4993443;28;20081;-71
2021/11/08 03:11:02;;;;;;;12.27;3.58;;;;;;;;;;4996484;28;20117;-71
2021/11/08 03:13:28;;;;;;;17.35;2.38;;;;;;;;;;4994305;28;20051;-71
2021/11/08 03:16:03;;;;;;;14.13;3.35;;;;;;;;;;5018702;28;20549;-71
2021/11/08 03:18:37;;;;;;;14.73;2.40;;;;;;;;;;5026370;28;20386;-71
2021/11/08 03:21:03;;;;;;;17.33;3.08;;;;;;;;;;5005467;28;20032;-71
2021/11/08 03:23:30;;;;;;;19.58;2.38;;;;;;;;;;4996989;28;20410;-71
2021/11/08 03:26:06;;;;;;;17.00;2.90;;;;;;;;;;5023913;28;20124;-71
2021/11/08 03:28:32;;;;;;;15.25;2.42;;;;;;;;;;5022909;28;20501;-71
2021/11/08 03:30:59;;;;;;;13.23;2.40;;;;;;;;;;5005238;28;20022;-71
2021/11/08 03:33:25;;;;;;;7.05;2.08;;;;;;;;;;5018794;28;20066;-71
2021/11/08 03:35:51;;;;;;;9.80;1.70;;;;;;;;;;5015605;28;20125;-71
2021/11/08 03:38:18;;;;;;;21.23;4.18;;;;;;;;;;5002012;28;20452;-71
2021/11/08 03:40:46;;;;;;;11.18;2.10;;;;;;;;;;5012759;28;20057;-71
2021/11/08 03:43:14;;;;;;;12.98;1.98;;;;;;;;;;5002723;28;20040;-71
2021/11/08 03:45:41;;;;;;;14.95;1.77;;;;;;;;;;4998000;28;20025;-71
2021/11/08 03:48:08;;;;;;;18.10;2.20;;;;;;;;;;5029545;28;20116;-71
2021/11/08 03:50:35;;;;;;;11.15;2.40;;;;;;;;;;5001827;28;20117;-71
2021/11/08 03:53:01;;;;;;;21.23;2.58;;;;;;;;;;5010711;28;20029;-71
2021/11/08 03:55:27;;;;;;;16.92;2.65;;;;;;;;;;5007408;28;20018;-71
2021/11/08 03:57:54;;;;;;;13.98;2.40;;;;;;;;;;5017597;28;20399;-71
2021/11/08 04:00:21;;;;;;;12.13;1.83;;;;;;;;;;5017456;28;20502;-71
2021/11/08 04:02:48;;;;;;;11.75;1.92;;;;;;;;;;5015868;28;20506;-71
2021/11/08 04:05:14;;;;;;;11.85;1.92;;;;;;;;;;5025922;28;20080;-71
2021/11/08 04:07:41;;;;;;;17.13;2.35;;;;;;;;;;5001867;28;20038;-71
2021/11/08 04:10:08;;;;;;;10.18;2.13;;;;;;;;;;5009278;28;20037;-71
2021/11/08 04:12:35;;;;;;;19.70;2.67;;;;;;;;;;5002138;28;20030;-71
2021/11/08 04:15:01;;;;;;;9.35;1.98;;;;;;;;;;5019077;28;20483;-71
2021/11/08 04:17:29;;;;;;;10.30;2.55;;;;;;;;;;4994906;28;20034;-71
2021/11/08 04:19:55;;;;;;;11.10;3.30;;;;;;;;;;4998576;28;20557;-71
2021/11/08 04:22:21;;;;;;;11.68;2.38;;;;;;;;;;5029241;28;20109;-71
2021/11/08 04:24:47;;;;;;;17.08;3.70;;;;;;;;;;4996827;28;20026;-71
2021/11/08 04:27:14;;;;;;;17.10;2.70;;;;;;;;;;5014245;28;20030;-71
2021/11/08 04:29:40;;;;;;;9.60;2.13;;;;;;;;;;5001271;28;20023;-71
2021/11/08 04:32:07;;;;;;;12.75;3.13;;;;;;;;;;5015953;28;20030;-71
2021/11/08 04:34:44;;;;;;;14.25;2.00;;;;;;;;;;5028672;28;20034;-71
2021/11/08 04:40:09;;;;;;;9.48;2.53;;;;;;;;;;4998932;28;20041;-71
2021/11/08 04:55:53;;;;;;;16.17;2.70;;;;;;;;;;4996357;28;20030;-71
2021/11/08 05:23:19;;;;;;;11.23;1.98;;;;;;;;;;5002518;28;20037;-71
2021/11/08 05:31:05;;;;;;;14.38;4.40;;;;;;;;;;5010280;28;20023;-71
2021/11/08 05:33:31;;;;;;;15.18;2.42;;;;;;;;;;5006893;28;20097;-71
2021/11/08 05:35:57;;;;;;;10.90;2.45;;;;;;;;;;4994426;28;20429;-71
2021/11/08 05:38:25;;;;;;;9.55;2.15;;;;;;;;;;5013847;28;20134;-71
2021/11/08 05:40:51;;;;;;;13.43;2.95;;;;;;;;;;5000685;28;20061;-71
2021/11/08 05:43:17;;;;;;;18.33;3.03;;;;;;;;;;5022252;28;20030;-71
2021/11/08 05:45:43;;;;;;;8.25;1.67;;;;;;;;;;5003715;28;20052;-71
2021/11/08 05:48:09;;;;;;;12.13;2.28;;;;;;;;;;4994400;28;20034;-71
2021/11/08 05:50:36;;;;;;;13.60;2.15;;;;;;;;;;5006584;28;20048;-71
2021/11/08 05:53:03;;;;;;;13.23;2.08;;;;;;;;;;5024296;28;20030;-71
2021/11/08 05:55:48;;;;;;;8.18;1.60;;;;;;;;;;5004049;28;20036;-71
2021/11/08 05:58:24;;;;;;;17.33;3.45;;;;;;;;;;5022654;28;20503;-71
2021/11/08 06:02:03;;;;;;;16.95;3.15;;;;;;;;;;5025764;28;20681;-71
2021/11/08 06:50:35;;;;;;;10.93;2.95;;;;;;;;;;5012392;28;20048;-72
2021/11/08 06:53:04;;;;;;;24.05;3.72;;;;;;;;;;5027155;28;20018;-71
2021/11/08 06:55:31;;;;;;;11.60;2.38;;;;;;;;;;5025687;28;20018;-73
2021/11/08 06:58:10;;;;;;;13.07;2.40;;;;;;;;;;5016412;28;20021;-71
2021/11/08 07:00:37;;;;;;;8.77;2.03;;;;;;;;;;5012372;28;20018;-72
2021/11/08 07:03:03;;;;;;;21.75;3.40;;;;;;;;;;5009376;28;20033;-71
2021/11/08 07:05:29;;;;;;;11.55;2.63;;;;;;;;;;5005321;28;20030;-71
2021/11/08 07:07:55;;;;;;;17.77;3.92;;;;;;;;;;5025524;28;20092;-72
2021/11/08 07:10:21;;;;;;;17.70;3.75;;;;;;;;;;5028886;28;20022;-72
2021/11/08 07:12:48;;;;;;;17.63;2.67;;;;;;;;;;5031005;28;20061;-72
2021/11/08 07:15:14;;;;;;;15.95;2.33;;;;;;;;;;5031445;28;20021;-72
2021/11/08 07:17:40;;;;;;;15.68;2.67;;;;;;;;;;5048200;28;20026;-73
2021/11/08 07:20:07;;;;;;;14.02;2.40;;;;;;;;;;5032624;28;20090;-71
2021/11/08 07:22:33;;;;;;;19.10;2.03;;;;;;;;;;5033051;28;20026;-71
2021/11/08 07:25:00;;;;;;;12.82;2.22;;;;;;;;;;5031528;28;20116;-72
2021/11/08 07:27:26;;;;;;;13.88;2.08;;;;;;;;;;5030423;28;20281;-73
2021/11/08 07:29:52;;;;;;;10.20;1.58;;;;;;;;;;5026606;28;20045;-71
2021/11/08 07:32:18;;;;;;;11.48;2.00;;;;;;;;;;5041946;28;20067;-72
2021/11/08 07:34:44;;;;;;;20.00;2.50;;;;;;;;;;5031342;28;20121;-73
2021/11/08 07:37:10;;;;;;;12.02;2.33;;;;;;;;;;5011960;28;20061;-73
2021/11/08 07:39:36;;;;;;;13.05;2.53;;;;;;;;;;5013423;28;20038;-72
2021/11/08 07:42:02;;;;;;;10.15;2.00;;;;;;;;;;5020831;28;20022;-72
2021/11/08 07:44:28;;;;;;;18.20;2.33;;;;;;;;;;5019773;28;20574;-72
2021/11/08 07:46:54;;;;;;;10.73;1.80;;;;;;;;;;5030708;28;20086;-72
2021/11/08 07:49:20;;;;;;;15.32;2.70;;;;;;;;;;5017136;28;20487;-73
2021/11/08 07:51:47;;;;;;;20.38;2.60;;;;;;;;;;5026384;28;20030;-71
2021/11/08 07:54:13;;;;;;;11.77;3.50;;;;;;;;;;5026711;28;20033;-72
2021/11/08 07:56:39;;;;;;;19.42;3.33;;;;;;;;;;5038388;28;20038;-72
2021/11/08 07:59:05;;;;;;;11.13;1.75;;;;;;;;;;5024990;28;20046;-71
2021/11/08 08:01:31;;;;;;;19.13;3.50;;;;;;;;;;5029567;28;20056;-72
2021/11/08 08:03:57;;;;;;;17.77;3.30;;;;;;;;;;5015045;28;20052;-72
2021/11/08 08:06:23;;;;;;;15.90;2.92;;;;;;;;;;5007540;28;20447;-72
2021/11/08 08:08:50;;;;;;;14.55;3.00;;;;;;;;;;5007008;28;20029;-72
2021/11/08 08:11:17;;;;;;;12.77;2.47;;;;;;;;;;5026877;28;20460;-72
2021/11/08 08:13:43;;;;;;;10.60;2.40;;;;;;;;;;5022787;28;20026;-72
2021/11/08 08:16:12;;;;;;;21.08;3.05;;;;;;;;;;5009779;28;20062;-74
2021/11/08 08:18:38;;;;;;;14.13;2.80;;;;;;;;;;5009200;28;20029;-72
2021/11/08 08:21:05;;;;;;;11.23;3.33;;;;;;;;;;5004759;28;20076;-72
2021/11/08 08:23:31;;;;;;;15.38;3.38;;;;;;;;;;5027032;28;20030;-72
2021/11/08 08:25:58;;;;;;;15.65;2.67;;;;;;;;;;5011393;28;20026;-72
2021/11/08 08:28:24;;;;;;;16.42;3.05;;;;;;;;;;5013262;28;20049;-73
2021/11/08 08:30:50;;;;;;;14.73;3.33;;;;;;;;;;5020242;28;20088;-72
2021/11/08 08:33:16;;;;;;;31.10;4.95;;;;;;;;;;5001200;28;20029;-72
2021/11/08 08:35:43;;;;;;;12.07;3.45;;;;;;;;;;5004181;28;20022;-72
2021/11/08 08:38:11;;;;;;;15.43;2.67;;;;;;;;;;5013298;28;20445;-71
2021/11/08 08:40:37;;;;;;;16.73;3.50;;;;;;;;;;5022100;28;20036;-72
2021/11/08 08:43:04;;;;;;;16.00;4.05;;;;;;;;;;5008235;28;20037;-72
2021/11/08 08:45:31;;;;;;;14.85;2.50;;;;;;;;;;5008591;28;20030;-72
2021/11/08 08:47:57;;;;;;;14.48;2.92;;;;;;;;;;5005778;28;20186;-72
2021/11/08 08:50:23;;;;;;;17.42;5.47;;;;;;;;;;5005209;28;20819;-72
2021/11/08 08:52:50;;;;;;;13.20;2.80;;;;;;;;;;5011282;28;20057;-72
2021/11/08 08:55:16;;;;;;;14.95;3.40;;;;;;;;;;5018077;28;20430;-72
2021/11/08 08:57:42;;;;;;;16.27;3.75;;;;;;;;;;5008748;28;20509;-73
2021/11/08 09:00:09;;;;;;;17.92;3.95;;;;;;;;;;5026606;28;20482;-73
2021/11/08 09:02:35;;;;;;;11.05;3.38;;;;;;;;;;5026888;28;20045;-72
2021/11/08 09:05:02;;;;;;;10.23;2.55;;;;;;;;;;5010001;28;20034;-72
2021/11/08 09:07:28;;;;;;;20.42;2.30;;;;;;;;;;5007624;28;20044;-72
2021/11/08 09:09:54;;;;;;;18.38;3.13;;;;;;;;;;5010824;28;20045;-72
2021/11/08 09:12:20;;;;;;;17.73;5.25;;;;;;;;;;5019115;28;20019;-72
2021/11/08 09:14:46;;;;;;;10.68;2.42;;;;;;;;;;5026477;28;20030;-72
2021/11/08 09:17:13;;;;;;;20.65;3.10;;;;;;;;;;5001771;28;20061;-72
2021/11/08 09:19:39;;;;;;;20.85;5.10;;;;;;;;;;5045209;28;20117;-72
2021/11/08 09:22:08;;;;;;;14.73;3.78;;;;;;;;;;5028250;28;20057;-73
2021/11/08 09:24:34;;;;;;;16.38;4.65;;;;;;;;;;5025419;28;20038;-71
2021/11/08 09:27:03;;;;;;;19.67;3.13;;;;;;;;;;5034516;28;20401;-72
2021/11/08 09:29:29;;;;;;;20.20;3.33;;;;;;;;;;5022409;28;20022;-73
2021/11/08 09:31:57;;;;;;;14.43;2.95;;;;;;;;;;5023250;28;20075;-72
2021/11/08 09:34:24;;;;;;;17.65;4.53;;;;;;;;;;5027759;28;20060;-71
2021/11/08 09:36:51;;;;;;;16.48;5.10;;;;;;;;;;5036187;28;20017;-71
2021/11/08 09:39:24;;;;;;;15.65;3.42;;;;;;;;;;5034958;28;20085;-71
2021/11/08 09:41:50;;;;;;;14.30;3.33;;;;;;;;;;5037381;28;20026;-71
2021/11/08 09:44:16;;;;;;;20.80;3.33;;;;;;;;;;5027956;28;20029;-70
2021/11/08 09:46:42;;;;;;;13.93;2.40;;;;;;;;;;5055118;28;20020;-71
2021/11/08 09:49:09;;;;;;;12.30;3.33;;;;;;;;;;5034958;28;20045;-71
2021/11/08 09:51:37;;;;;;;17.63;3.35;;;;;;;;;;5036811;28;20030;-70
2021/11/08 09:54:04;;;;;;;16.63;3.67;;;;;;;;;;5032858;28;20072;-71
2021/11/08 09:56:30;;;;;;;12.73;2.58;;;;;;;;;;5036798;28;20029;-70
2021/11/08 09:58:58;;;;;;;22.88;4.93;;;;;;;;;;5035930;28;20063;-70
2021/11/08 10:01:24;;;;;;;11.60;3.08;;;;;;;;;;5042580;28;20072;-70
2021/11/08 10:03:50;;;;;;;11.45;2.58;;;;;;;;;;5052136;28;20125;-71
2021/11/08 10:06:17;;;;;;;15.18;2.50;;;;;;;;;;5032609;28;20149;-71
2021/11/08 10:08:44;;;;;;;16.30;2.30;;;;;;;;;;5024473;28;20033;-72
2021/11/08 10:11:14;;;;;;;18.40;3.95;;;;;;;;;;5047477;28;20109;-72
2021/11/08 10:13:41;;;;;;;16.70;2.40;;;;;;;;;;5035999;28;20120;-72
2021/11/08 10:16:13;;;;;;;7.38;2.47;;;;;;;;;;5029809;28;20543;-72
2021/11/08 10:18:40;;;;;;;14.07;2.45;;;;;;;;;;5027174;28;20375;-72
2021/11/08 10:21:07;;;;;;;20.83;3.58;;;;;;;;;;5025595;28;20104;-72
2021/11/08 10:23:34;;;;;;;10.75;2.53;;;;;;;;;;5044357;28;20395;-72
2021/11/08 10:26:00;;;;;;;10.13;2.70;;;;;;;;;;5027380;28;20104;-71
2021/11/08 10:28:27;;;;;;;17.02;3.08;;;;;;;;;;5021009;28;20489;-71
2021/11/08 10:31:00;;;;;;;12.18;2.58;;;;;;;;;;5031406;28;20032;-71
2021/11/08 10:33:30;;;;;;;13.00;4.57;;;;;;;;;;5031669;28;20474;-71
2021/11/08 10:35:59;;;;;;;14.93;2.47;;;;;;;;;;5021123;28;20497;-71
2021/11/08 10:38:27;;;;;;;15.00;1.97;;;;;;;;;;5016353;28;20041;-71
2021/11/08 10:40:58;;;;;;;9.18;2.65;;;;;;;;;;5029195;28;20506;-72
2021/11/08 10:43:26;;;;;;;15.13;2.30;;;;;;;;;;5024726;28;20037;-71
2021/11/08 10:45:53;;;;;;;13.23;3.20;;;;;;;;;;5024054;28;20491;-71
2021/11/08 10:48:21;;;;;;;10.57;1.83;;;;;;;;;;5020884;28;20037;-70
2021/11/08 10:50:48;;;;;;;7.53;1.38;;;;;;;;;;5023020;28;20478;-71
2021/11/08 10:53:14;;;;;;;16.92;1.90;;;;;;;;;;5026959;28;20029;-71
2021/11/08 10:55:40;;;;;;;11.45;1.80;;;;;;;;;;5026892;28;20021;-71
2021/11/08 10:58:10;;;;;;;13.15;1.85;;;;;;;;;;5026742;28;20044;-71
2021/11/08 11:00:57;;;;;;;13.82;1.75;;;;;;;;;;5026611;28;20029;-71
2021/11/08 11:03:24;;;;;;;18.15;2.35;;;;;;;;;;5027259;28;20083;-71
2021/11/08 11:06:01;;;;;;;10.25;1.85;;;;;;;;;;5027254;28;20030;-70
2021/11/08 11:08:27;;;;;;;10.73;1.88;;;;;;;;;;5027945;28;20025;-71
2021/11/08 11:11:05;;;;;;;10.13;2.15;;;;;;;;;;5025413;28;20365;-71
2021/11/08 11:13:32;;;;;;;9.63;2.10;;;;;;;;;;5028822;28;20033;-71
2021/11/08 11:16:03;;;;;;;16.02;1.85;;;;;;;;;;5023713;28;20072;-71
2021/11/08 11:18:37;;;;;;;10.38;1.98;;;;;;;;;;5021851;28;20033;-70
2021/11/08 11:21:23;;;;;;;14.65;2.80;;;;;;;;;;5018718;28;20502;-71
2021/11/08 11:23:50;;;;;;;10.82;2.08;;;;;;;;;;5023786;28;20541;-72
2021/11/08 11:26:18;;;;;;;9.50;1.80;;;;;;;;;;5024875;28;20026;-72
2021/11/08 11:28:46;;;;;;;9.88;1.70;;;;;;;;;;5038588;28;20641;-72
2021/11/08 11:31:17;;;;;;;4.75;1.08;;;;;;;;;;5025805;28;20474;-71
2021/11/08 11:33:43;;;;;;;12.65;2.17;;;;;;;;;;5021918;28;20515;-71
2021/11/08 11:36:11;;;;;;;17.60;3.17;;;;;;;;;;5020798;28;20026;-70
2021/11/08 11:38:40;;;;;;;17.67;2.67;;;;;;;;;;5020527;28;20038;-72
2021/11/08 11:41:07;;;;;;;14.57;1.75;;;;;;;;;;5024783;28;20130;-72
2021/11/08 11:43:56;;;;;;;15.73;2.15;;;;;;;;;;5027546;28;20087;-72
2021/11/08 11:46:23;;;;;;;15.87;2.03;;;;;;;;;;5023319;28;20432;-71
2021/11/08 11:48:50;;;;;;;15.07;1.83;;;;;;;;;;5025806;28;20387;-72
2021/11/08 11:51:25;;;;;;;9.57;1.67;;;;;;;;;;5044060;28;20053;-70
2021/11/08 11:53:51;;;;;;;8.32;1.60;;;;;;;;;;5038765;28;20035;-71
2021/11/08 11:56:19;;;;;;;13.25;3.28;;;;;;;;;;5024428;28;20408;-72
2021/11/08 11:58:45;;;;;;;12.95;2.83;;;;;;;;;;5026354;28;20029;-71
2021/11/08 12:01:12;;;;;;;18.48;2.00;;;;;;;;;;5023430;28;20033;-72
2021/11/08 12:03:39;;;;;;;13.27;2.13;;;;;;;;;;5024440;28;20032;-71
2021/11/08 12:06:06;;;;;;;15.80;1.98;;;;;;;;;;5024178;28;20034;-72
2021/11/08 12:08:36;;;;;;;7.35;1.40;;;;;;;;;;5025940;28;20119;-71
2021/11/08 12:11:02;;;;;;;13.80;1.98;;;;;;;;;;5022644;28;20021;-71
2021/11/08 12:13:29;;;;;;;12.48;1.50;;;;;;;;;;5025185;28;20030;-71
2021/11/08 12:15:57;;;;;;;17.45;2.45;;;;;;;;;;5026742;28;20474;-73
2021/11/08 12:18:23;;;;;;;8.35;1.63;;;;;;;;;;5027473;28;20033;-72
2021/11/08 12:20:51;;;;;;;18.48;2.10;;;;;;;;;;5024327;28;20033;-72
2021/11/08 12:23:19;;;;;;;12.38;2.50;;;;;;;;;;5031319;28;20437;-72
2021/11/08 12:25:45;;;;;;;14.75;1.75;;;;;;;;;;5017387;28;20031;-72
2021/11/08 12:28:21;;;;;;;10.02;2.22;;;;;;;;;;5033577;28;20471;-72
2021/11/08 12:30:49;;;;;;;11.55;2.30;;;;;;;;;;5021042;28;20096;-72
2021/11/08 12:33:26;;;;;;;7.78;1.48;;;;;;;;;;5024063;28;20113;-72
2021/11/08 12:35:52;;;;;;;14.23;1.80;;;;;;;;;;5030600;28;20029;-73
2021/11/08 12:38:23;;;;;;;8.18;1.98;;;;;;;;;;5027268;28;20033;-73
2021/11/08 12:40:50;;;;;;;12.32;3.40;;;;;;;;;;5032431;28;20029;-73
2021/11/08 12:43:24;;;;;;;8.35;1.45;;;;;;;;;;5045682;28;20540;-74
2021/11/08 12:45:50;;;;;;;12.68;2.58;;;;;;;;;;5030825;28;20140;-74
2021/11/08 12:48:17;;;;;;;17.33;3.13;;;;;;;;;;5047140;28;20128;-73
2021/11/08 12:50:47;;;;;;;11.40;1.65;;;;;;;;;;5022196;28;20091;-74
2021/11/08 12:53:21;;;;;;;15.00;2.28;;;;;;;;;;5019300;28;20033;-73
2021/11/08 12:55:47;;;;;;;11.85;2.72;;;;;;;;;;5036204;28;20025;-74
2021/11/08 12:58:13;;;;;;;13.02;1.70;;;;;;;;;;5030721;28;20029;-74
2021/11/08 13:00:40;;;;;;;12.60;2.53;;;;;;;;;;5027068;28;20108;-73
2021/11/08 13:03:15;;;;;;;11.57;2.85;;;;;;;;;;5029838;28;20025;-73
2021/11/08 13:05:48;;;;;;;12.50;2.88;;;;;;;;;;5043083;28;20045;-73
2021/11/08 13:08:22;;;;;;;11.63;1.80;;;;;;;;;;5040344;28;20481;-73
2021/11/08 13:10:59;;;;;;;16.83;1.90;;;;;;;;;;5046695;28;20421;-73
2021/11/08 13:13:26;;;;;;;11.95;3.05;;;;;;;;;;5019259;28;20057;-73
2021/11/08 13:16:00;;;;;;;7.85;1.50;;;;;;;;;;5019503;28;20394;-73
2021/11/08 13:18:34;;;;;;;10.68;1.23;;;;;;;;;;5045388;28;20029;-73
2021/11/08 13:21:01;;;;;;;11.93;1.45;;;;;;;;;;5043402;28;20390;-74
2021/11/08 13:23:28;;;;;;;11.20;1.83;;;;;;;;;;5023893;28;20122;-74
2021/11/08 13:25:56;;;;;;;11.02;1.75;;;;;;;;;;5019551;28;20025;-73
2021/11/08 13:28:23;;;;;;;10.02;2.10;;;;;;;;;;5030511;28;20414;-73
2021/11/08 13:30:53;;;;;;;15.70;2.35;;;;;;;;;;5023187;28;20222;-73
2021/11/08 13:33:19;;;;;;;;;;;;;;;;;;5036593;28;20018;-73
2021/11/08 13:35:46;;;;;;;11.95;1.83;;;;;;;;;;5029476;28;19909;-73
2021/11/08 13:38:14;;;;;;;9.43;1.23;;;;;;;;;;5016524;28;20025;-73
2021/11/08 13:40:43;;;;;;;9.43;1.92;;;;;;;;;;5022127;28;20490;-73
2021/11/08 13:43:20;;;;;;;11.98;2.25;;;;;;;;;;5023243;28;20022;-73
2021/11/08 13:45:54;;;;;;;8.00;1.52;;;;;;;;;;5043942;28;20046;-72
2021/11/08 13:48:25;;;;;;;13.63;1.63;;;;;;;;;;5026629;28;20030;-72
2021/11/08 13:50:51;;;;;;;13.88;4.38;;;;;;;;;;5017841;28;20502;-73
2021/11/08 13:53:29;;;;;;;7.90;1.40;;;;;;;;;;5044423;22;20039;-74
2021/11/08 13:56:00;;;;;;;15.20;2.95;;;;;;;;;;4997358;28;20535;-74
2021/11/08 13:58:27;;;;;;;9.73;1.85;;;;;;;;;;4979979;28;20031;-74
2021/11/08 14:00:53;;;;;;;12.70;2.13;;;;;;;;;;4985833;28;20026;-73
2021/11/08 14:03:19;;;;;;;10.13;2.08;;;;;;;;;;4989758;28;20023;-74
2021/11/08 14:05:47;;;;;;;10.43;1.90;;;;;;;;;;4988346;28;20395;-72
2021/11/08 14:08:12;;;;;;;14.68;2.47;;;;;;;;;;4988017;28;20530;-73
2021/11/08 14:10:39;;;;;;;11.63;3.25;;;;;;;;;;4987757;28;20105;-73
2021/11/08 14:13:11;;;;;;;14.45;2.00;;;;;;;;;;4989035;28;20252;-73
2021/11/08 14:15:37;;;;;;;12.20;2.35;;;;;;;;;;4991138;28;20031;-73
2021/11/08 14:18:03;;;;;;;15.38;3.53;;;;;;;;;;4990367;28;20365;-73
2021/11/08 14:20:29;;;;;;;9.93;1.60;;;;;;;;;;4991254;28;20514;-73
2021/11/08 14:22:55;;;;;;;13.57;1.77;;;;;;;;;;4989194;28;20519;-73
2021/11/08 14:25:21;;;;;;;8.18;1.65;;;;;;;;;;4989345;28;20026;-73
2021/11/08 14:27:47;;;;;;;11.15;2.17;;;;;;;;;;4988983;28;20395;-73
2021/11/08 14:30:13;;;;;;;15.57;1.90;;;;;;;;;;4988995;28;20490;-73
2021/11/08 14:32:39;;;;;;;15.68;2.10;;;;;;;;;;4989351;28;20030;-74
2021/11/08 14:35:11;;;;;;;12.57;2.17;;;;;;;;;;4988976;28;20027;-73
2021/11/08 14:37:39;;;;;;;10.45;2.25;;;;;;;;;;4989281;28;20085;-73
2021/11/08 14:40:13;;;;;;;22.27;4.15;;;;;;;;;;4990602;28;20073;-73
2021/11/08 14:42:40;;;;;;;11.95;4.05;;;;;;;;;;4987297;28;20034;-73
2021/11/08 14:45:06;;;;;;;12.63;1.63;;;;;;;;;;4985465;28;20699;-73
2021/11/08 14:47:33;;;;;;;8.77;1.42;;;;;;;;;;4990391;28;20050;-73
2021/11/08 14:50:08;;;;;;;15.90;3.17;;;;;;;;;;4990685;28;20387;-73
2021/11/08 14:52:34;;;;;;;13.68;2.00;;;;;;;;;;4990881;28;20526;-73
2021/11/08 14:55:00;;;;;;;14.70;2.63;;;;;;;;;;4990325;28;20050;-73
2021/11/08 14:57:31;;;;;;;8.73;1.63;;;;;;;;;;4990340;28;20418;-73
2021/11/08 14:59:57;;;;;;;13.38;1.63;;;;;;;;;;4990010;28;20546;-74
2021/11/08 15:02:27;;;;;;;11.15;2.47;;;;;;;;;;4990191;28;20034;-74
2021/11/08 15:04:58;;;;;;;13.85;2.22;;;;;;;;;;4995666;28;20027;-73
2021/11/08 15:07:32;;;;;;;18.05;3.25;;;;;;;;;;4990125;28;20137;-73
2021/11/08 15:09:59;;;;;;;11.23;2.20;;;;;;;;;;4990302;28;20023;-73
2021/11/08 15:12:29;;;;;;;16.85;2.88;;;;;;;;;;4989467;28;20034;-73
2021/11/08 15:15:05;;;;;;;18.50;2.40;;;;;;;;;;4990238;28;20030;-73
2021/11/08 15:17:32;;;;;;;20.38;3.10;;;;;;;;;;4988840;28;20022;-74
2021/11/08 15:20:03;;;;;;;11.50;2.03;;;;;;;;;;4991675;28;20030;-73
2021/11/08 15:22:29;;;;;;;9.75;1.40;;;;;;;;;;4992762;28;20038;-74
2021/11/08 15:24:55;;;;;;;14.00;2.10;;;;;;;;;;4992007;28;20026;-73
2021/11/08 15:27:28;;;;;;;10.15;1.60;;;;;;;;;;4993052;28;20117;-73
2021/11/08 15:30:02;;;;;;;7.53;1.70;;;;;;;;;;4994189;28;20022;-73
2021/11/08 15:32:29;;;;;;;14.07;2.65;;;;;;;;;;4993883;28;20404;-73
2021/11/08 15:34:55;;;;;;;23.92;3.58;;;;;;;;;;4994300;28;20022;-73
2021/11/08 15:37:22;;;;;;;13.23;2.40;;;;;;;;;;4994011;28;20030;-73
2021/11/08 15:39:48;;;;;;;11.60;1.70;;;;;;;;;;4993144;28;20450;-73
2021/11/08 15:42:14;;;;;;;15.30;2.00;;;;;;;;;;4991707;28;20188;-73
2021/11/08 15:44:40;;;;;;;10.23;2.67;;;;;;;;;;4980392;28;20034;-73
2021/11/08 15:47:07;;;;;;;13.70;3.15;;;;;;;;;;4991090;28;20522;-73
2021/11/08 15:49:34;;;;;;;10.85;3.22;;;;;;;;;;4976481;28;20050;-73
2021/11/08 15:51:59;;;;;;;16.52;2.67;;;;;;;;;;4978646;28;20109;-73
2021/11/08 15:54:26;;;;;;;12.45;2.28;;;;;;;;;;4991671;28;20109;-73
2021/11/08 15:56:54;;;;;;;11.93;2.95;;;;;;;;;;4992447;28;20487;-72
2021/11/08 15:59:20;;;;;;;10.70;1.50;;;;;;;;;;4993701;28;20061;-72
2021/11/08 16:01:47;;;;;;;13.25;1.90;;;;;;;;;;4980752;28;20105;-72
2021/11/08 16:04:13;;;;;;;13.02;2.53;;;;;;;;;;4993120;28;20060;-72
2021/11/08 16:06:40;;;;;;;16.10;3.03;;;;;;;;;;4991989;28;20110;-72
2021/11/08 16:09:06;;;;;;;16.10;1.98;;;;;;;;;;4991586;28;20022;-72
2021/11/08 16:11:32;;;;;;;10.20;2.03;;;;;;;;;;4992118;28;20105;-73
2021/11/08 16:13:58;;;;;;;11.10;1.80;;;;;;;;;;4990850;28;20022;-72